TAX73JC EDDH-BGGH
Flight info
| Callsign | TAX73JC |
|---|---|
| Flight time | N/A |
| Altitude | 32000 |
| Route | ELSOB3C ELSOB DCT DOROR DCT ELSAN DCT OVDAN DCT WIK DCT ADASI DCT ATSIX/M082F320 DCT 62N018W/M083F340 63N028W 64N039W DCT EVULO |
| Aircraft | B77L/H-SDE1E2E3FGHIJ2J3J4J5M1RWXY/LB1D1 |
Departure
| Time | 2026-05-07 12:28 |
|---|---|
| Airport | Hamburg Helmut Schmidt Airport (EDDH) |
Arrival
| Time | N/A |
|---|---|
| Airport | Nuuk International Airport (BGGH) |
| Time | Latitude | Longitude | Altitude | Speed | Heading |
|---|---|---|---|---|---|
| 2026-05-07 11:59 | 53.62779 | 9.99129 | 48 ft | 0 kts | 62° |
| 2026-05-07 12:16 | 53.62774 | 9.99112 | 50 ft | 4 kts | 65° |
| 2026-05-07 12:17 | 53.62765 | 9.99070 | 44 ft | 4 kts | 77° |
| 2026-05-07 12:17 | 53.62762 | 9.99026 | 44 ft | 4 kts | 97° |
| 2026-05-07 12:17 | 53.62770 | 9.98987 | 45 ft | 4 kts | 142° |
| 2026-05-07 12:17 | 53.62775 | 9.98980 | 45 ft | 1 kts | 153° |
| 2026-05-07 12:20 | 53.62772 | 9.98983 | 45 ft | 2 kts | 153° |
| 2026-05-07 12:20 | 53.62756 | 9.98997 | 44 ft | 3 kts | 153° |
| 2026-05-07 12:21 | 53.62704 | 9.99042 | 49 ft | 14 kts | 153° |
| 2026-05-07 12:21 | 53.62647 | 9.99090 | 46 ft | 0 kts | 153° |
| 2026-05-07 12:22 | 53.62643 | 9.99093 | 49 ft | 2 kts | 153° |
| 2026-05-07 12:22 | 53.62593 | 9.99121 | 51 ft | 14 kts | 179° |
| 2026-05-07 12:22 | 53.62553 | 9.99016 | 51 ft | 12 kts | 259° |
| 2026-05-07 12:23 | 53.62538 | 9.98883 | 49 ft | 12 kts | 259° |
| 2026-05-07 12:23 | 53.62523 | 9.98751 | 48 ft | 12 kts | 259° |
| 2026-05-07 12:23 | 53.62508 | 9.98618 | 46 ft | 12 kts | 259° |
| 2026-05-07 12:23 | 53.62493 | 9.98485 | 46 ft | 12 kts | 258° |
| 2026-05-07 12:24 | 53.62479 | 9.98352 | 51 ft | 12 kts | 261° |
| 2026-05-07 12:24 | 53.62460 | 9.98216 | 47 ft | 13 kts | 252° |
| 2026-05-07 12:24 | 53.62415 | 9.98062 | 48 ft | 16 kts | 233° |
| 2026-05-07 12:24 | 53.62337 | 9.97902 | 44 ft | 19 kts | 230° |
| 2026-05-07 12:25 | 53.62246 | 9.97717 | 48 ft | 22 kts | 230° |
| 2026-05-07 12:25 | 53.62143 | 9.97511 | 51 ft | 24 kts | 231° |
| 2026-05-07 12:25 | 53.62037 | 9.97293 | 45 ft | 24 kts | 230° |
| 2026-05-07 12:25 | 53.61929 | 9.97077 | 50 ft | 24 kts | 230° |
| 2026-05-07 12:26 | 53.61822 | 9.96860 | 48 ft | 24 kts | 230° |
| 2026-05-07 12:26 | 53.61715 | 9.96644 | 47 ft | 24 kts | 230° |
| 2026-05-07 12:26 | 53.61691 | 9.96434 | 49 ft | 20 kts | 322° |
| 2026-05-07 12:26 | 53.61822 | 9.96410 | 49 ft | 16 kts | 2° |
| 2026-05-07 12:27 | 53.61922 | 9.96565 | 48 ft | 31 kts | 50° |
| 2026-05-07 12:27 | 53.62195 | 9.97118 | 44 ft | 94 kts | 50° |
| 2026-05-07 12:27 | 53.62744 | 9.98228 | 47 ft | 151 kts | 50° |
| 2026-05-07 12:27 | 53.63493 | 9.99730 | 242 ft | 173 kts | 54° |
| 2026-05-07 12:28 | 53.64271 | 10.01298 | 738 ft | 175 kts | 52° |
| 2026-05-07 12:28 | 53.65048 | 10.02888 | 1233 ft | 184 kts | 50° |
| 2026-05-07 12:28 | 53.65914 | 10.04664 | 1403 ft | 202 kts | 51° |
| 2026-05-07 12:28 | 53.66850 | 10.06572 | 1595 ft | 225 kts | 52° |
| 2026-05-07 12:29 | 53.67873 | 10.08598 | 2043 ft | 235 kts | 43° |
| 2026-05-07 12:29 | 53.69410 | 10.09755 | 2453 ft | 249 kts | 4° |
| 2026-05-07 12:29 | 53.71115 | 10.09363 | 3112 ft | 257 kts | 341° |
| 2026-05-07 12:29 | 53.72545 | 10.07525 | 3724 ft | 266 kts | 307° |
| 2026-05-07 12:30 | 53.73448 | 10.04753 | 4329 ft | 273 kts | 297° |
| 2026-05-07 12:30 | 53.74275 | 10.01859 | 5033 ft | 275 kts | 298° |
| 2026-05-07 12:30 | 53.75007 | 9.98866 | 5550 ft | 279 kts | 281° |
| 2026-05-07 12:30 | 53.74871 | 9.95585 | 6060 ft | 285 kts | 249° |
| 2026-05-07 12:31 | 53.74076 | 9.92546 | 6642 ft | 286 kts | 246° |
| 2026-05-07 12:31 | 53.73279 | 9.89425 | 7290 ft | 286 kts | 247° |
| 2026-05-07 12:31 | 53.72503 | 9.86321 | 7879 ft | 287 kts | 247° |
| 2026-05-07 12:31 | 53.71716 | 9.83202 | 8436 ft | 291 kts | 246° |
| 2026-05-07 12:32 | 53.70918 | 9.80062 | 9142 ft | 288 kts | 247° |
| 2026-05-07 12:32 | 53.70138 | 9.76948 | 9787 ft | 290 kts | 246° |
| 2026-05-07 12:32 | 53.69338 | 9.73816 | 10350 ft | 293 kts | 246° |
| 2026-05-07 12:32 | 53.68509 | 9.70560 | 10518 ft | 312 kts | 247° |
| 2026-05-07 12:33 | 53.66749 | 9.63607 | 11445 ft | 328 kts | 249° |
| 2026-05-07 12:33 | 53.66262 | 9.59861 | 11964 ft | 332 kts | 272° |
| 2026-05-07 12:33 | 53.66790 | 9.56104 | 12694 ft | 332 kts | 296° |
| 2026-05-07 12:34 | 53.68091 | 9.52906 | 13433 ft | 331 kts | 313° |
| 2026-05-07 12:34 | 53.69706 | 9.50086 | 14040 ft | 337 kts | 314° |
| 2026-05-07 12:34 | 53.71363 | 9.47265 | 14695 ft | 339 kts | 314° |
| 2026-05-07 12:34 | 53.73033 | 9.44446 | 15391 ft | 341 kts | 314° |
| 2026-05-07 12:35 | 53.74725 | 9.41591 | 15979 ft | 346 kts | 314° |
| 2026-05-07 12:35 | 53.76429 | 9.38694 | 16618 ft | 349 kts | 314° |
| 2026-05-07 12:35 | 53.78132 | 9.35783 | 17376 ft | 349 kts | 313° |
| 2026-05-07 12:35 | 53.79840 | 9.32850 | 18038 ft | 352 kts | 313° |
| 2026-05-07 12:36 | 53.81568 | 9.29873 | 18596 ft | 357 kts | 313° |
| 2026-05-07 12:36 | 53.83317 | 9.26858 | 19085 ft | 361 kts | 313° |
| 2026-05-07 12:36 | 53.85077 | 9.23809 | 19682 ft | 363 kts | 313° |
| 2026-05-07 12:36 | 53.86857 | 9.20733 | 20150 ft | 367 kts | 313° |
| 2026-05-07 12:37 | 53.88648 | 9.17623 | 20731 ft | 368 kts | 313° |
| 2026-05-07 12:37 | 53.90438 | 9.14509 | 21280 ft | 371 kts | 312° |
| 2026-05-07 12:37 | 53.92245 | 9.11340 | 21701 ft | 377 kts | 313° |
| 2026-05-07 12:37 | 53.94080 | 9.08115 | 22230 ft | 380 kts | 312° |
| 2026-05-07 12:38 | 53.95857 | 9.05002 | 22799 ft | 382 kts | 313° |